createdAt,value
2023-02-24T00:00:42.038Z,99471.36
2023-02-24T00:03:11.914Z,99463.19
2023-02-24T00:05:43.437Z,99466.43
2023-02-24T00:08:13.316Z,99455.64
2023-02-24T00:10:43.491Z,99455.64
2023-02-24T00:13:13.004Z,99449.88
2023-02-24T00:15:42.885Z,99445.59
2023-02-24T00:18:12.579Z,99442.23
2023-02-24T00:20:42.662Z,99439.22
2023-02-24T00:23:12.215Z,99441.52
2023-02-24T00:25:42.034Z,99434.32
2023-02-24T00:28:13.150Z,99433.37
2023-02-24T00:30:44.471Z,99431.30
2023-02-24T00:33:14.317Z,99426.75
2023-02-24T00:35:45.764Z,99416.94
2023-02-24T00:38:15.650Z,99416.94
2023-02-24T00:40:45.487Z,99417.92
2023-02-24T00:43:15.406Z,99411.08
2023-02-24T00:45:45.190Z,99407.72
2023-02-24T00:48:15.767Z,99401.74
2023-02-24T00:50:45.725Z,99404.60
2023-02-24T00:53:16.871Z,99400.64
2023-02-24T00:55:47.729Z,99391.79
2023-02-24T00:58:19.416Z,99394.32
2023-02-24T01:00:49.396Z,99389.75
2023-02-24T01:03:19.032Z,99390.59
2023-02-24T01:05:49.012Z,99388.91
2023-02-24T01:08:20.164Z,99384.71
2023-02-24T01:11:18.739Z,99390.61
2023-02-24T01:13:49.113Z,99385.20
2023-02-24T01:16:21.637Z,99385.20
2023-02-24T01:18:51.969Z,99385.81
2023-02-24T01:21:22.591Z,99378.73
2023-02-24T01:23:54.563Z,99377.06
2023-02-24T01:26:26.097Z,99373.48
2023-02-24T01:28:56.546Z,99377.66
2023-02-24T01:31:28.113Z,99379.20
2023-02-24T01:33:57.069Z,99369.16
2023-02-24T01:36:27.588Z,99370.59
2023-02-24T01:38:57.058Z,99360.42
2023-02-24T01:41:31.301Z,99358.72
2023-02-24T01:44:12.319Z,99361.94
2023-02-24T01:46:44.618Z,99352.23
2023-02-24T01:49:20.899Z,99353.87
2023-02-24T01:52:01.234Z,99350.88
2023-02-24T01:54:34.084Z,99350.30
2023-02-24T01:57:05.974Z,99340.84
2023-02-24T01:59:36.677Z,99338.45
2023-02-24T02:02:09.431Z,99334.03
2023-02-24T02:04:45.505Z,99335.36
2023-02-24T02:07:21.876Z,99324.19
2023-02-24T02:09:53.978Z,99323.23
2023-02-24T02:12:25.141Z,99320.69
2023-02-24T02:14:59.475Z,99323.01
2023-02-24T02:17:44.058Z,99317.27
2023-02-24T02:20:25.676Z,99318.22
2023-02-24T02:23:12.315Z,99318.65
2023-02-24T02:26:00.832Z,99322.55
2023-02-24T02:28:33.482Z,99315.34
2023-02-24T02:31:35.371Z,99314.06
2023-02-24T02:34:12.426Z,99306.15
2023-02-24T02:37:03.437Z,99303.86
2023-02-24T02:39:50.957Z,99294.22
2023-02-24T02:42:41.312Z,99295.52
2023-02-24T02:45:20.030Z,99291.55
2023-02-24T02:47:58.529Z,99286.42
2023-02-24T02:50:33.001Z,99292.27
2023-02-24T02:53:06.227Z,99289.86
2023-02-24T02:55:51.931Z,99290.00
2023-02-24T02:58:26.211Z,99278.03
2023-02-24T03:01:01.136Z,99278.03
2023-02-24T03:03:34.532Z,99288.92
2023-02-24T03:06:22.436Z,99278.88
2023-02-24T03:09:15.127Z,99281.36
2023-02-24T03:11:48.367Z,99275.04
2023-02-24T03:14:20.898Z,99275.04
2023-02-24T03:16:53.404Z,99272.16
2023-02-24T03:19:26.156Z,99264.40
2023-02-24T03:22:14.695Z,99260.55
2023-02-24T03:24:46.422Z,99267.84
2023-02-24T03:27:26.840Z,99261.16
2023-02-24T03:30:04.898Z,99256.50
2023-02-24T03:32:45.491Z,99257.31
2023-02-24T03:35:34.374Z,99254.89
2023-02-24T03:38:07.033Z,99254.89
2023-02-24T03:40:38.307Z,99249.20
2023-02-24T03:43:08.927Z,99255.77
2023-02-24T03:45:40.491Z,99249.31
2023-02-24T03:48:15.050Z,99246.31
2023-02-24T03:50:46.883Z,99248.46
2023-02-24T03:53:33.229Z,99242.98
2023-02-24T03:56:06.112Z,99246.09
2023-02-24T03:59:12.136Z,99232.69
2023-02-24T04:02:03.044Z,99232.69
2023-02-24T04:04:41.684Z,99233.90
2023-02-24T04:07:30.951Z,99225.13
2023-02-24T04:10:27.520Z,99226.82
2023-02-24T04:13:03.423Z,99226.46
2023-02-24T04:15:37.779Z,99226.46
2023-02-24T04:18:13.946Z,99220.11
2023-02-24T04:20:45.644Z,99218.58
2023-02-24T04:23:21.795Z,99213.77
2023-02-24T04:25:56.114Z,99215.56
2023-02-24T04:28:29.706Z,99213.16
2023-02-24T04:31:07.319Z,99214.13
2023-02-24T04:33:38.588Z,99209.49
2023-02-24T04:36:09.290Z,99211.03
2023-02-24T04:38:39.569Z,99206.71
2023-02-24T04:41:09.082Z,99202.41
2023-02-24T04:43:38.992Z,99197.64
2023-02-24T04:46:09.402Z,99197.64
2023-02-24T04:48:39.228Z,99198.33
2023-02-24T04:51:09.037Z,99188.91
2023-02-24T04:53:38.843Z,99187.71
2023-02-24T04:56:09.283Z,99187.45
2023-02-24T04:58:41.558Z,99192.59
2023-02-24T05:01:12.010Z,99189.38
2023-02-24T05:03:43.479Z,99186.98
2023-02-24T05:06:16.106Z,99177.66
2023-02-24T05:08:46.331Z,99177.66
2023-02-24T05:11:18.842Z,99177.05
2023-02-24T05:13:48.943Z,99173.70
2023-02-24T05:16:20.491Z,99174.55
2023-02-24T05:18:50.459Z,99175.49
2023-02-24T05:21:38.436Z,99168.31
2023-02-24T05:24:10.383Z,99167.95
2023-02-24T05:26:42.616Z,99169.16
2023-02-24T05:29:13.325Z,99169.16
2023-02-24T05:31:43.459Z,99162.45
2023-02-24T05:34:15.230Z,99159.23
2023-02-24T05:36:46.119Z,99166.73
2023-02-24T05:39:18.057Z,99161.02
2023-02-24T05:41:49.361Z,99160.66
2023-02-24T05:44:23.589Z,99160.06
2023-02-24T05:46:57.754Z,99161.38
2023-02-24T05:49:32.016Z,99155.04
2023-02-24T05:52:06.472Z,99164.22
2023-02-24T05:54:40.104Z,99161.74
2023-02-24T05:57:12.714Z,99166.64
2023-02-24T05:59:44.774Z,99166.64
2023-02-24T06:02:16.655Z,99162.70
2023-02-24T06:04:54.921Z,99167.02
2023-02-24T06:07:28.117Z,99161.14
2023-02-24T06:10:00.242Z,99163.67
2023-02-24T06:12:32.240Z,99163.78
2023-02-24T06:15:04.432Z,99170.97
2023-02-24T06:17:34.434Z,99166.89
2023-02-24T06:20:06.553Z,99163.44
2023-02-24T06:22:38.001Z,99158.62
2023-02-24T06:25:08.543Z,99161.50
2023-02-24T06:27:39.241Z,99163.06
2023-02-24T06:30:10.548Z,99162.11
2023-02-24T06:32:39.941Z,99160.06
2023-02-24T06:35:10.266Z,99157.32
2023-02-24T06:37:41.106Z,99160.55
2023-02-24T06:40:17.931Z,99161.28
2023-02-24T06:42:56.449Z,99163.29
2023-02-24T06:45:27.205Z,99165.69
2023-02-24T06:47:57.987Z,99162.69
2023-02-24T06:50:28.844Z,99167.23
2023-02-24T06:52:59.266Z,99170.23
2023-02-24T06:55:29.366Z,99166.64
2023-02-24T06:58:02.727Z,99175.24
2023-02-24T07:00:39.461Z,99166.73
2023-02-24T07:03:13.295Z,99171.61
2023-02-24T07:05:47.785Z,99173.02
2023-02-24T07:08:21.122Z,99169.02
2023-02-24T07:10:56.154Z,99169.02
2023-02-24T07:13:28.728Z,99172.38
2023-02-24T07:16:07.059Z,99169.95
2023-02-24T07:18:39.357Z,99169.95
2023-02-24T07:21:11.620Z,99170.11
2023-02-24T07:23:42.378Z,99172.66
2023-02-24T07:26:15.279Z,99166.28
2023-02-24T07:28:48.252Z,99166.42
2023-02-24T07:31:21.312Z,99168.34
2023-02-24T07:33:58.245Z,99165.70
2023-02-24T07:36:30.511Z,99160.84
2023-02-24T07:39:02.355Z,99163.69
2023-02-24T07:41:32.177Z,99164.28
2023-02-24T07:44:03.507Z,99156.50
2023-02-24T07:46:33.793Z,99158.19
2023-02-24T07:49:04.276Z,99155.30
2023-02-24T07:51:34.071Z,99139.13
2023-02-24T07:54:05.197Z,99139.13
2023-02-24T07:56:33.935Z,99160.10
2023-02-24T07:59:07.239Z,99154.83
2023-02-24T08:01:40.323Z,99151.84
2023-02-24T08:04:12.925Z,99149.47
2023-02-24T08:06:48.612Z,99147.05
2023-02-24T08:09:24.901Z,99137.41
2023-02-24T08:11:56.689Z,99141.44
2023-02-24T08:14:31.240Z,99139.80
2023-02-24T08:17:01.948Z,99135.77
2023-02-24T08:19:36.320Z,99132.28
2023-02-24T08:22:20.331Z,99129.30
2023-02-24T08:24:53.250Z,99129.19
2023-02-24T08:27:25.847Z,99129.55
2023-02-24T08:30:00.096Z,99128.48
2023-02-24T08:32:38.500Z,99126.56
2023-02-24T08:35:17.495Z,99123.23
2023-02-24T08:37:50.320Z,99123.23
2023-02-24T08:40:36.208Z,99119.29
2023-02-24T08:43:19.810Z,99122.28
2023-02-24T08:46:13.967Z,99109.48
2023-02-24T08:48:46.514Z,99118.09
2023-02-24T08:51:24.546Z,99107.77
2023-02-24T08:53:57.067Z,99105.05
2023-02-24T08:56:29.719Z,99095.74
2023-02-24T08:59:03.482Z,99099.55
2023-02-24T09:01:36.503Z,99097.89
2023-02-24T09:04:12.913Z,99090.95
2023-02-24T09:06:46.047Z,99085.94
2023-02-24T09:09:24.045Z,99086.30
2023-02-24T09:11:57.308Z,99080.34
2023-02-24T09:14:33.888Z,99080.34
2023-02-24T09:17:06.757Z,99083.09
2023-02-24T09:19:49.989Z,99074.95
2023-02-24T09:22:45.546Z,99072.31
2023-02-24T09:25:19.180Z,99072.80
2023-02-24T09:27:59.861Z,99073.99
2023-02-24T09:30:36.974Z,99067.41
2023-02-24T09:33:12.110Z,99067.41
2023-02-24T09:35:43.237Z,99059.88
2023-02-24T09:38:13.674Z,99059.88
2023-02-24T09:40:49.074Z,99063.34
2023-02-24T09:43:23.571Z,99057.50
2023-02-24T09:45:57.897Z,99050.08
2023-02-24T09:48:38.537Z,99044.47
2023-02-24T09:51:09.843Z,99039.17
2023-02-24T09:53:41.525Z,99034.34
2023-02-24T09:56:13.179Z,99033.78
2023-02-24T09:58:55.100Z,99037.02
2023-02-24T10:01:48.345Z,99040.87
2023-02-24T10:04:33.821Z,99041.73
2023-02-24T10:07:12.496Z,99046.48
2023-02-24T10:10:01.772Z,99041.06
2023-02-24T10:12:35.734Z,99045.27
2023-02-24T10:15:20.906Z,99045.27
2023-02-24T10:17:56.808Z,99041.98
2023-02-24T10:20:33.805Z,99032.14
2023-02-24T10:23:26.240Z,99015.55
2023-02-24T10:26:06.837Z,99015.55
2023-02-24T10:28:45.604Z,99013.65
2023-02-24T10:31:27.264Z,99006.47
2023-02-24T10:34:09.275Z,98999.66
2023-02-24T10:36:40.304Z,98985.77
2023-02-24T10:39:24.049Z,98987.91
2023-02-24T10:42:01.237Z,98979.43
2023-02-24T10:44:33.642Z,98979.23
2023-02-24T10:47:12.599Z,98964.87
2023-02-24T10:49:57.570Z,98966.80
2023-02-24T10:52:52.767Z,98955.87
2023-02-24T10:55:44.972Z,98952.14
2023-02-24T10:58:40.523Z,98952.22
2023-02-24T11:01:21.349Z,98954.15
2023-02-24T11:04:04.772Z,98957.36
2023-02-24T11:06:42.066Z,98953.65
2023-02-24T11:09:30.974Z,98944.02
2023-02-24T11:12:24.273Z,98944.02
2023-02-24T11:15:14.454Z,98930.38
2023-02-24T11:17:53.217Z,98927.99
2023-02-24T11:20:29.419Z,98928.95
2023-02-24T11:22:57.803Z,98925.13
2023-02-24T11:25:36.854Z,98914.63
2023-02-24T11:28:07.680Z,98909.50
2023-02-24T11:30:54.950Z,98906.21
2023-02-24T11:33:45.310Z,98900.88
2023-02-24T11:36:23.841Z,98893.34
2023-02-24T11:39:16.547Z,98878.48
2023-02-24T11:41:37.114Z,98875.59
2023-02-24T11:44:22.393Z,98871.36
2023-02-24T11:46:57.219Z,98872.08
2023-02-24T11:49:36.118Z,98869.45
2023-02-24T11:52:09.459Z,98858.57
2023-02-24T11:54:42.384Z,98864.53
2023-02-24T11:57:15.303Z,98857.84
2023-02-24T11:59:48.422Z,98850.87
2023-02-24T12:02:27.036Z,98831.70
2023-02-24T12:05:27.115Z,98831.70
2023-02-24T12:08:08.890Z,98827.68
2023-02-24T12:10:46.323Z,98826.45
2023-02-24T12:13:30.580Z,98827.33
2023-02-24T12:16:28.029Z,98826.30
2023-02-24T12:19:19.894Z,98824.12
2023-02-24T12:22:03.079Z,98818.91
2023-02-24T12:24:35.933Z,98814.88
2023-02-24T12:27:21.939Z,98804.39
2023-02-24T12:30:11.446Z,98804.39
2023-02-24T12:33:02.601Z,98806.44
2023-02-24T12:35:47.542Z,98791.40
2023-02-24T12:38:45.963Z,98795.53
2023-02-24T12:41:42.714Z,98793.14
2023-02-24T12:44:41.758Z,98780.39
2023-02-24T12:47:19.783Z,98780.11
2023-02-24T12:49:55.610Z,98764.92
2023-02-24T12:52:37.331Z,98757.13
2023-02-24T12:55:28.071Z,98752.31
2023-02-24T12:58:15.419Z,98749.05
2023-02-24T13:00:57.477Z,98749.05
2023-02-24T13:03:42.329Z,98751.00
2023-02-24T13:06:41.109Z,98743.19
2023-02-24T13:09:32.078Z,98733.73
2023-02-24T13:12:07.604Z,98721.09
2023-02-24T13:14:42.281Z,98717.06
2023-02-24T13:17:15.389Z,98713.91
2023-02-24T13:19:46.917Z,98713.08
2023-02-24T13:22:22.433Z,98703.55
2023-02-24T13:25:13.898Z,98698.14
2023-02-24T13:27:44.803Z,98694.67
2023-02-24T13:30:29.741Z,98693.13
2023-02-24T13:33:20.460Z,98691.98
2023-02-24T13:35:57.525Z,98689.70
2023-02-24T13:38:37.435Z,98685.19
2023-02-24T13:41:19.347Z,98683.33
2023-02-24T13:44:06.702Z,98670.50
2023-02-24T13:46:54.227Z,98665.63
2023-02-24T13:49:52.439Z,98659.23
2023-02-24T13:52:48.987Z,98661.25
2023-02-24T13:55:44.146Z,98661.25
2023-02-24T13:58:33.212Z,98655.62
2023-02-24T14:01:08.798Z,98652.09
2023-02-24T14:03:41.761Z,98646.95
2023-02-24T14:06:26.097Z,98648.48
2023-02-24T14:09:01.915Z,98645.97
2023-02-24T14:11:34.751Z,98652.16
2023-02-24T14:14:05.356Z,98652.16
2023-02-24T14:16:39.962Z,98656.22
2023-02-24T14:19:16.267Z,98657.16
2023-02-24T14:21:54.869Z,98651.63
2023-02-24T14:24:26.486Z,98646.90
2023-02-24T14:26:59.354Z,98658.48
2023-02-24T14:29:43.201Z,98649.19
2023-02-24T14:32:06.703Z,98646.29
2023-02-24T14:34:36.690Z,98645.16
2023-02-24T14:37:08.522Z,98641.40
2023-02-24T14:39:38.298Z,98639.52
2023-02-24T14:42:14.242Z,98632.38
2023-02-24T14:44:47.068Z,98625.75
2023-02-24T14:47:19.053Z,98623.95
2023-02-24T14:50:02.243Z,98626.45
2023-02-24T14:52:37.977Z,98624.96
2023-02-24T14:55:10.508Z,98619.61
2023-02-24T14:58:01.528Z,98615.11
2023-02-24T15:00:34.371Z,98615.11
2023-02-24T15:03:15.879Z,98603.05
2023-02-24T15:05:48.921Z,98599.75
2023-02-24T15:08:34.156Z,98600.29
2023-02-24T15:11:07.075Z,98594.08
2023-02-24T15:13:43.021Z,98583.58
2023-02-24T15:16:15.584Z,98579.50
2023-02-24T15:18:47.102Z,98577.41
2023-02-24T15:21:25.727Z,98566.83
2023-02-24T15:24:03.499Z,98572.97
2023-02-24T15:26:35.920Z,98569.20
2023-02-24T15:29:18.371Z,98568.45
2023-02-24T15:31:49.767Z,98568.45
2023-02-24T15:34:34.989Z,98566.99
2023-02-24T15:37:19.472Z,98566.45
2023-02-24T15:39:51.405Z,98560.33
2023-02-24T15:42:30.794Z,98560.33
2023-02-24T15:45:10.033Z,98562.52
2023-02-24T15:47:47.191Z,98551.72
2023-02-24T15:50:17.331Z,98540.05
2023-02-24T15:52:47.358Z,98537.94
2023-02-24T15:55:19.976Z,98535.82
2023-02-24T15:57:53.080Z,98526.72
2023-02-24T16:00:23.836Z,98515.03
2023-02-24T16:02:54.218Z,98515.03
2023-02-24T16:05:24.375Z,98510.61
2023-02-24T16:07:54.839Z,98519.77
2023-02-24T16:10:29.753Z,98513.84
2023-02-24T16:13:01.856Z,98514.73
2023-02-24T16:15:36.677Z,98507.75
2023-02-24T16:18:10.961Z,98507.75
2023-02-24T16:20:40.907Z,98508.39
2023-02-24T16:23:11.580Z,98520.33
2023-02-24T16:25:45.701Z,98519.98
2023-02-24T16:28:20.633Z,98510.39
2023-02-24T16:30:51.549Z,98508.88
2023-02-24T16:33:24.163Z,98506.85
2023-02-24T16:35:54.164Z,98502.69
2023-02-24T16:38:27.124Z,98503.50
2023-02-24T16:40:57.614Z,98503.50
2023-02-24T16:43:27.460Z,98496.62
2023-02-24T16:46:04.029Z,98502.06
2023-02-24T16:48:37.585Z,98501.40
2023-02-24T16:51:08.653Z,98496.57
2023-02-24T16:53:42.581Z,98487.41
2023-02-24T16:56:14.408Z,98494.91
2023-02-24T16:58:44.353Z,98489.09
2023-02-24T17:01:17.228Z,98480.75
2023-02-24T17:03:49.886Z,98486.57
2023-02-24T17:06:22.331Z,98475.72
2023-02-24T17:08:51.267Z,98481.45
2023-02-24T17:11:24.147Z,98459.13
2023-02-24T17:13:54.026Z,98459.13
2023-02-24T17:16:24.111Z,98476.75
2023-02-24T17:18:53.908Z,98475.80
2023-02-24T17:21:24.915Z,98474.25
2023-02-24T17:23:54.660Z,98474.25
2023-02-24T17:26:24.539Z,98466.12
2023-02-24T17:28:54.372Z,98465.92
2023-02-24T17:31:24.121Z,98459.09
2023-02-24T17:33:53.935Z,98461.63
2023-02-24T17:36:24.000Z,98458.97
2023-02-24T17:38:55.317Z,98449.65
2023-02-24T17:41:26.766Z,98449.09
2023-02-24T17:43:56.541Z,98439.41
2023-02-24T17:46:26.925Z,98435.12
2023-02-24T17:48:57.116Z,98435.89
2023-02-24T17:51:27.706Z,98435.12
2023-02-24T17:53:57.187Z,98437.16
2023-02-24T17:56:27.675Z,98435.30
2023-02-24T17:58:59.359Z,98430.34
2023-02-24T18:01:30.950Z,98429.39
2023-02-24T18:04:01.018Z,98431.69
2023-02-24T18:06:30.822Z,98429.88
2023-02-24T18:09:01.255Z,98428.55
2023-02-24T18:11:31.128Z,98422.02
2023-02-24T18:14:02.497Z,98418.08
2023-02-24T18:16:31.528Z,98416.66
2023-02-24T18:19:01.357Z,98413.45
2023-02-24T18:21:31.206Z,98408.76
2023-02-24T18:24:01.139Z,98406.15
2023-02-24T18:26:31.666Z,98403.44
2023-02-24T18:29:02.662Z,98403.44
2023-02-24T18:31:33.457Z,98396.11
2023-02-24T18:34:03.478Z,98391.50
2023-02-24T18:36:33.360Z,98387.38
2023-02-24T18:39:03.213Z,98384.52
2023-02-24T18:41:33.095Z,98380.23
2023-02-24T18:44:02.901Z,98382.73
2023-02-24T18:46:33.442Z,98380.05
2023-02-24T18:49:05.265Z,98385.09
2023-02-24T18:51:37.475Z,98383.27
2023-02-24T18:54:07.958Z,98382.55
2023-02-24T18:56:41.200Z,98374.70
2023-02-24T18:59:12.617Z,98375.69
2023-02-24T19:01:44.420Z,98372.57
2023-02-24T19:04:17.148Z,98363.89
2023-02-24T19:06:48.661Z,98360.75
2023-02-24T19:09:22.662Z,98358.47
2023-02-24T19:11:54.237Z,98345.52
2023-02-24T19:14:24.216Z,98339.76
2023-02-24T19:16:54.118Z,98335.02
2023-02-24T19:19:24.498Z,98339.91
2023-02-24T19:21:54.854Z,98327.55
2023-02-24T19:24:24.443Z,98321.44
2023-02-24T19:26:55.326Z,98314.48
2023-02-24T19:29:27.687Z,98309.64
2023-02-24T19:32:00.015Z,98314.05
2023-02-24T19:34:30.184Z,98311.52
2023-02-24T19:36:59.976Z,98303.34
2023-02-24T19:39:29.765Z,98305.12
2023-02-24T19:41:59.854Z,98299.28
2023-02-24T19:44:29.783Z,98292.13
2023-02-24T19:46:59.795Z,98295.45
2023-02-24T19:49:29.564Z,98290.80
2023-02-24T19:52:00.727Z,98297.02
2023-02-24T19:54:30.576Z,98301.80
2023-02-24T19:57:01.812Z,98295.66
2023-02-24T19:59:31.649Z,98297.20
2023-02-24T20:02:02.117Z,98289.16
2023-02-24T20:04:31.675Z,98293.94
2023-02-24T20:07:01.494Z,98291.90
2023-02-24T20:09:32.127Z,98282.38
2023-02-24T20:12:02.312Z,98275.41
2023-02-24T20:14:32.085Z,98272.48
2023-02-24T20:17:01.968Z,98266.34
2023-02-24T20:19:33.368Z,98260.38
2023-02-24T20:22:04.501Z,98257.55
2023-02-24T20:24:35.214Z,98253.64
2023-02-24T20:27:05.056Z,98257.13
2023-02-24T20:29:35.334Z,98253.38
2023-02-24T20:32:06.410Z,98249.31
2023-02-24T20:34:38.087Z,98253.02
2023-02-24T20:37:07.966Z,98251.02
2023-02-24T20:39:37.915Z,98250.98
2023-02-24T20:42:07.771Z,98244.22
2023-02-24T20:44:37.579Z,98251.98
2023-02-24T20:47:07.185Z,98249.92
2023-02-24T20:49:36.962Z,98249.99
2023-02-24T20:52:06.715Z,98255.53
2023-02-24T20:54:36.857Z,98249.45
2023-02-24T20:57:08.426Z,98248.73
2023-02-24T20:59:39.652Z,98243.42
2023-02-24T21:02:12.743Z,98236.96
2023-02-24T21:04:42.383Z,98237.98
2023-02-24T21:07:13.843Z,98243.92
2023-02-24T21:09:42.625Z,98231.64
2023-02-24T21:12:12.411Z,98227.56
2023-02-24T21:14:43.530Z,98219.94
2023-02-24T21:17:13.540Z,98217.28
2023-02-24T21:19:43.562Z,98217.05
2023-02-24T21:22:13.189Z,98212.81
2023-02-24T21:24:43.146Z,98211.55
2023-02-24T21:27:13.374Z,98201.36
2023-02-24T21:29:43.118Z,98197.55
2023-02-24T21:32:13.303Z,98186.74
2023-02-24T21:34:43.216Z,98182.62
2023-02-24T21:37:12.831Z,98182.40
2023-02-24T21:39:42.616Z,98177.28
2023-02-24T21:42:12.204Z,98173.42
2023-02-24T21:44:44.751Z,98169.92
2023-02-24T21:47:14.628Z,98164.06
2023-02-24T21:49:46.114Z,98169.08
2023-02-24T21:52:14.931Z,98161.21
2023-02-24T21:54:44.939Z,98166.00
2023-02-24T21:57:14.593Z,98170.30
2023-02-24T21:59:44.778Z,98161.84
2023-02-24T22:02:16.883Z,98166.47
2023-02-24T22:04:47.205Z,98164.41
2023-02-24T22:07:17.006Z,98168.64
2023-02-24T22:09:47.122Z,98168.72
2023-02-24T22:12:16.603Z,98163.98
2023-02-24T22:14:46.403Z,98162.39
2023-02-24T22:17:15.885Z,98164.31
2023-02-24T22:19:45.684Z,98167.44
2023-02-24T22:22:15.163Z,98168.03
2023-02-24T22:24:44.970Z,98164.45
2023-02-24T22:27:14.746Z,98158.88
2023-02-24T22:29:44.850Z,98150.51
2023-02-24T22:32:14.838Z,98157.28
2023-02-24T22:34:45.249Z,98160.23
2023-02-24T22:37:15.221Z,98157.82
2023-02-24T22:39:45.385Z,98156.34
2023-02-24T22:42:14.896Z,98158.17
2023-02-24T22:44:44.769Z,98156.52
2023-02-24T22:47:14.362Z,98154.91
2023-02-24T22:49:44.380Z,98154.91
2023-02-24T22:52:15.879Z,98148.48
2023-02-24T22:54:45.333Z,98157.41
2023-02-24T22:57:15.185Z,98158.42
2023-02-24T22:59:45.214Z,98151.66
2023-02-24T23:02:14.970Z,98154.40
2023-02-24T23:04:44.783Z,98152.11
2023-02-24T23:07:14.475Z,98152.00
2023-02-24T23:09:45.900Z,98160.56
2023-02-24T23:12:17.133Z,98160.81
2023-02-24T23:14:47.274Z,98162.52
2023-02-24T23:17:17.227Z,98162.05
2023-02-24T23:19:47.116Z,98154.44
2023-02-24T23:22:18.217Z,98151.00
2023-02-24T23:24:48.021Z,98152.58
2023-02-24T23:27:17.845Z,98142.32
2023-02-24T23:29:47.724Z,98145.56
2023-02-24T23:32:17.699Z,98152.81
2023-02-24T23:34:47.498Z,98141.52
2023-02-24T23:37:16.974Z,98143.69
2023-02-24T23:39:46.813Z,98147.02
2023-02-24T23:42:18.179Z,98140.13
2023-02-24T23:44:52.068Z,98127.52
2023-02-24T23:47:21.627Z,98132.66
2023-02-24T23:49:51.963Z,98122.66
2023-02-24T23:52:21.580Z,98121.59
2023-02-24T23:54:52.807Z,98121.25
2023-02-24T23:57:23.292Z,98116.38
2023-02-24T23:59:53.472Z,98113.06
